sensor_id;sensor_type;location;lat;lon;timestamp;P1;durP1;ratioP1;P2;durP2;ratioP2
51148;SDS011;37210;50.058;8.688;2022-12-20T00:02:18;27.73;;;24.13;;
51148;SDS011;37210;50.058;8.688;2022-12-20T00:04:48;30.27;;;24.20;;
51148;SDS011;37210;50.058;8.688;2022-12-20T00:07:17;27.63;;;24.33;;
51148;SDS011;37210;50.058;8.688;2022-12-20T00:09:44;29.63;;;24.92;;
51148;SDS011;37210;50.058;8.688;2022-12-20T00:12:13;31.90;;;26.25;;
51148;SDS011;37210;50.058;8.688;2022-12-20T00:14:40;28.65;;;25.60;;
51148;SDS011;37210;50.058;8.688;2022-12-20T00:17:08;33.60;;;25.02;;
51148;SDS011;37210;50.058;8.688;2022-12-20T00:19:35;30.25;;;23.02;;
51148;SDS011;37210;50.058;8.688;2022-12-20T00:22:03;29.52;;;25.00;;
51148;SDS011;37210;50.058;8.688;2022-12-20T00:24:30;30.25;;;24.88;;
51148;SDS011;37210;50.058;8.688;2022-12-20T00:26:58;29.13;;;24.38;;
51148;SDS011;37210;50.058;8.688;2022-12-20T00:29:27;38.50;;;27.15;;
51148;SDS011;37210;50.058;8.688;2022-12-20T00:31:55;28.50;;;24.08;;
51148;SDS011;37210;50.058;8.688;2022-12-20T00:34:22;30.40;;;24.95;;
51148;SDS011;37210;50.058;8.688;2022-12-20T00:36:50;33.38;;;24.92;;
51148;SDS011;37210;50.058;8.688;2022-12-20T00:39:17;32.45;;;24.83;;
51148;SDS011;37210;50.058;8.688;2022-12-20T00:41:45;34.83;;;23.52;;
51148;SDS011;37210;50.058;8.688;2022-12-20T00:44:13;32.10;;;23.73;;
51148;SDS011;37210;50.058;8.688;2022-12-20T00:46:41;32.65;;;24.67;;
51148;SDS011;37210;50.058;8.688;2022-12-20T00:49:09;32.72;;;25.52;;
51148;SDS011;37210;50.058;8.688;2022-12-20T00:51:36;30.77;;;23.73;;
51148;SDS011;37210;50.058;8.688;2022-12-20T00:54:04;31.50;;;24.08;;
51148;SDS011;37210;50.058;8.688;2022-12-20T00:56:31;27.45;;;23.35;;
51148;SDS011;37210;50.058;8.688;2022-12-20T00:58:58;33.50;;;23.77;;
51148;SDS011;37210;50.058;8.688;2022-12-20T01:01:27;34.67;;;26.05;;
51148;SDS011;37210;50.058;8.688;2022-12-20T01:03:58;31.27;;;24.92;;
51148;SDS011;37210;50.058;8.688;2022-12-20T01:06:26;28.98;;;23.75;;
51148;SDS011;37210;50.058;8.688;2022-12-20T01:08:54;29.80;;;24.33;;
51148;SDS011;37210;50.058;8.688;2022-12-20T01:11:23;27.88;;;22.80;;
51148;SDS011;37210;50.058;8.688;2022-12-20T01:13:54;31.00;;;23.00;;
51148;SDS011;37210;50.058;8.688;2022-12-20T01:16:25;30.13;;;22.25;;
51148;SDS011;37210;50.058;8.688;2022-12-20T01:18:55;32.15;;;23.02;;
51148;SDS011;37210;50.058;8.688;2022-12-20T01:21:24;34.67;;;24.27;;
51148;SDS011;37210;50.058;8.688;2022-12-20T01:23:54;29.13;;;24.15;;
51148;SDS011;37210;50.058;8.688;2022-12-20T01:26:26;28.17;;;23.70;;
51148;SDS011;37210;50.058;8.688;2022-12-20T01:28:56;28.00;;;23.13;;
51148;SDS011;37210;50.058;8.688;2022-12-20T01:31:26;31.25;;;24.38;;
51148;SDS011;37210;50.058;8.688;2022-12-20T01:33:55;28.92;;;23.30;;
51148;SDS011;37210;50.058;8.688;2022-12-20T01:36:26;28.42;;;23.63;;
51148;SDS011;37210;50.058;8.688;2022-12-20T01:38:56;30.45;;;23.13;;
51148;SDS011;37210;50.058;8.688;2022-12-20T01:41:25;32.67;;;24.40;;
51148;SDS011;37210;50.058;8.688;2022-12-20T01:43:55;28.42;;;22.90;;
51148;SDS011;37210;50.058;8.688;2022-12-20T01:46:26;28.52;;;22.27;;
51148;SDS011;37210;50.058;8.688;2022-12-20T01:48:57;32.80;;;23.38;;
51148;SDS011;37210;50.058;8.688;2022-12-20T01:51:33;28.10;;;23.33;;
51148;SDS011;37210;50.058;8.688;2022-12-20T01:54:09;32.03;;;24.45;;
51148;SDS011;37210;50.058;8.688;2022-12-20T01:56:43;28.73;;;23.88;;
51148;SDS011;37210;50.058;8.688;2022-12-20T01:59:15;31.20;;;22.92;;
51148;SDS011;37210;50.058;8.688;2022-12-20T02:01:43;27.05;;;22.60;;
51148;SDS011;37210;50.058;8.688;2022-12-20T02:04:12;29.40;;;23.13;;
51148;SDS011;37210;50.058;8.688;2022-12-20T02:06:41;29.60;;;23.52;;
51148;SDS011;37210;50.058;8.688;2022-12-20T02:09:08;29.50;;;23.05;;
51148;SDS011;37210;50.058;8.688;2022-12-20T02:11:48;24.08;;;21.50;;
51148;SDS011;37210;50.058;8.688;2022-12-20T02:14:37;30.88;;;24.40;;
51148;SDS011;37210;50.058;8.688;2022-12-20T02:17:30;25.42;;;22.30;;
51148;SDS011;37210;50.058;8.688;2022-12-20T02:26:47;26.80;;;23.60;;
51148;SDS011;37210;50.058;8.688;2022-12-20T02:32:43;25.98;;;22.63;;
51148;SDS011;37210;50.058;8.688;2022-12-20T02:35:21;27.23;;;22.33;;
51148;SDS011;37210;50.058;8.688;2022-12-20T02:37:53;27.13;;;22.70;;
51148;SDS011;37210;50.058;8.688;2022-12-20T02:40:24;27.67;;;22.65;;
51148;SDS011;37210;50.058;8.688;2022-12-20T02:42:58;27.13;;;22.38;;
51148;SDS011;37210;50.058;8.688;2022-12-20T02:45:51;29.65;;;22.40;;
51148;SDS011;37210;50.058;8.688;2022-12-20T02:48:21;26.35;;;23.25;;
51148;SDS011;37210;50.058;8.688;2022-12-20T02:50:54;32.47;;;23.75;;
51148;SDS011;37210;50.058;8.688;2022-12-20T02:53:26;29.90;;;24.08;;
51148;SDS011;37210;50.058;8.688;2022-12-20T02:55:56;27.33;;;22.52;;
51148;SDS011;37210;50.058;8.688;2022-12-20T02:58:33;26.10;;;22.17;;
51148;SDS011;37210;50.058;8.688;2022-12-20T03:01:09;31.75;;;22.73;;
51148;SDS011;37210;50.058;8.688;2022-12-20T03:03:44;25.08;;;22.38;;
51148;SDS011;37210;50.058;8.688;2022-12-20T03:06:11;27.10;;;21.63;;
51148;SDS011;37210;50.058;8.688;2022-12-20T03:08:39;27.10;;;22.50;;
51148;SDS011;37210;50.058;8.688;2022-12-20T03:11:06;26.10;;;21.05;;
51148;SDS011;37210;50.058;8.688;2022-12-20T03:13:34;27.73;;;21.67;;
51148;SDS011;37210;50.058;8.688;2022-12-20T03:16:06;27.90;;;21.95;;
51148;SDS011;37210;50.058;8.688;2022-12-20T03:18:37;26.55;;;21.45;;
51148;SDS011;37210;50.058;8.688;2022-12-20T03:21:04;24.52;;;22.02;;
51148;SDS011;37210;50.058;8.688;2022-12-20T03:23:32;24.33;;;20.92;;
51148;SDS011;37210;50.058;8.688;2022-12-20T03:26:00;25.90;;;20.05;;
51148;SDS011;37210;50.058;8.688;2022-12-20T03:28:35;25.00;;;21.02;;
51148;SDS011;37210;50.058;8.688;2022-12-20T03:31:03;24.20;;;21.65;;
51148;SDS011;37210;50.058;8.688;2022-12-20T03:33:38;29.05;;;22.73;;
51148;SDS011;37210;50.058;8.688;2022-12-20T03:36:07;27.35;;;22.02;;
51148;SDS011;37210;50.058;8.688;2022-12-20T03:38:35;28.65;;;23.25;;
51148;SDS011;37210;50.058;8.688;2022-12-20T03:41:05;24.65;;;21.63;;
51148;SDS011;37210;50.058;8.688;2022-12-20T03:43:32;25.48;;;20.73;;
51148;SDS011;37210;50.058;8.688;2022-12-20T03:46:00;25.05;;;21.13;;
51148;SDS011;37210;50.058;8.688;2022-12-20T03:48:34;26.48;;;21.17;;
51148;SDS011;37210;50.058;8.688;2022-12-20T03:51:03;24.23;;;21.25;;
51148;SDS011;37210;50.058;8.688;2022-12-20T03:53:32;24.10;;;21.52;;
51148;SDS011;37210;50.058;8.688;2022-12-20T03:56:00;24.70;;;21.98;;
51148;SDS011;37210;50.058;8.688;2022-12-20T03:58:27;24.58;;;21.48;;
51148;SDS011;37210;50.058;8.688;2022-12-20T04:00:55;25.23;;;21.90;;
51148;SDS011;37210;50.058;8.688;2022-12-20T04:03:37;27.50;;;21.17;;
51148;SDS011;37210;50.058;8.688;2022-12-20T04:06:06;26.45;;;20.95;;
51148;SDS011;37210;50.058;8.688;2022-12-20T04:08:34;26.00;;;21.55;;
51148;SDS011;37210;50.058;8.688;2022-12-20T04:11:02;24.38;;;19.48;;
51148;SDS011;37210;50.058;8.688;2022-12-20T04:14:02;27.70;;;21.85;;
51148;SDS011;37210;50.058;8.688;2022-12-20T04:16:30;25.35;;;19.85;;
51148;SDS011;37210;50.058;8.688;2022-12-20T04:18:57;25.98;;;21.40;;
51148;SDS011;37210;50.058;8.688;2022-12-20T04:21:30;23.60;;;21.10;;
51148;SDS011;37210;50.058;8.688;2022-12-20T04:24:01;27.17;;;21.10;;
51148;SDS011;37210;50.058;8.688;2022-12-20T04:26:50;25.35;;;20.88;;
51148;SDS011;37210;50.058;8.688;2022-12-20T04:29:17;26.65;;;21.17;;
51148;SDS011;37210;50.058;8.688;2022-12-20T04:31:45;25.70;;;20.95;;
51148;SDS011;37210;50.058;8.688;2022-12-20T04:34:13;27.05;;;22.10;;
51148;SDS011;37210;50.058;8.688;2022-12-20T04:36:42;23.08;;;20.05;;
51148;SDS011;37210;50.058;8.688;2022-12-20T04:39:16;26.13;;;21.58;;
51148;SDS011;37210;50.058;8.688;2022-12-20T04:42:03;29.10;;;22.45;;
51148;SDS011;37210;50.058;8.688;2022-12-20T04:44:30;25.00;;;21.50;;
51148;SDS011;37210;50.058;8.688;2022-12-20T04:46:58;27.95;;;23.02;;
51148;SDS011;37210;50.058;8.688;2022-12-20T04:49:26;27.50;;;21.92;;
51148;SDS011;37210;50.058;8.688;2022-12-20T04:51:55;26.52;;;21.58;;
51148;SDS011;37210;50.058;8.688;2022-12-20T04:54:44;27.80;;;21.25;;
51148;SDS011;37210;50.058;8.688;2022-12-20T04:57:15;26.45;;;22.15;;
51148;SDS011;37210;50.058;8.688;2022-12-20T04:59:43;27.50;;;22.30;;
51148;SDS011;37210;50.058;8.688;2022-12-20T05:02:12;26.73;;;20.67;;
51148;SDS011;37210;50.058;8.688;2022-12-20T05:04:48;27.65;;;21.55;;
51148;SDS011;37210;50.058;8.688;2022-12-20T05:07:17;23.67;;;20.92;;
51148;SDS011;37210;50.058;8.688;2022-12-20T05:09:50;28.58;;;21.55;;
51148;SDS011;37210;50.058;8.688;2022-12-20T05:12:17;29.30;;;22.25;;
51148;SDS011;37210;50.058;8.688;2022-12-20T05:14:45;22.83;;;20.20;;
51148;SDS011;37210;50.058;8.688;2022-12-20T05:17:18;26.30;;;21.55;;
51148;SDS011;37210;50.058;8.688;2022-12-20T05:19:45;24.45;;;20.60;;
51148;SDS011;37210;50.058;8.688;2022-12-20T05:22:14;29.20;;;21.45;;
51148;SDS011;37210;50.058;8.688;2022-12-20T05:25:12;25.02;;;20.75;;
51148;SDS011;37210;50.058;8.688;2022-12-20T05:28:02;27.08;;;21.88;;
51148;SDS011;37210;50.058;8.688;2022-12-20T05:30:34;24.63;;;21.08;;
51148;SDS011;37210;50.058;8.688;2022-12-20T05:33:02;26.23;;;21.52;;
51148;SDS011;37210;50.058;8.688;2022-12-20T05:35:30;24.65;;;20.30;;
51148;SDS011;37210;50.058;8.688;2022-12-20T05:38:05;25.17;;;20.08;;
51148;SDS011;37210;50.058;8.688;2022-12-20T05:40:35;24.75;;;21.02;;
51148;SDS011;37210;50.058;8.688;2022-12-20T05:43:04;26.10;;;21.45;;
51148;SDS011;37210;50.058;8.688;2022-12-20T05:45:36;28.20;;;21.42;;
51148;SDS011;37210;50.058;8.688;2022-12-20T05:48:10;26.08;;;21.85;;
51148;SDS011;37210;50.058;8.688;2022-12-20T05:50:39;26.52;;;22.05;;
51148;SDS011;37210;50.058;8.688;2022-12-20T05:53:40;25.50;;;21.45;;
51148;SDS011;37210;50.058;8.688;2022-12-20T05:56:09;29.45;;;22.20;;
51148;SDS011;37210;50.058;8.688;2022-12-20T05:58:37;23.75;;;20.88;;
51148;SDS011;37210;50.058;8.688;2022-12-20T06:01:06;27.10;;;22.88;;
51148;SDS011;37210;50.058;8.688;2022-12-20T06:03:37;25.38;;;21.85;;
51148;SDS011;37210;50.058;8.688;2022-12-20T06:06:09;25.30;;;21.98;;
51148;SDS011;37210;50.058;8.688;2022-12-20T06:08:37;26.92;;;21.45;;
51148;SDS011;37210;50.058;8.688;2022-12-20T06:11:10;25.75;;;21.73;;
51148;SDS011;37210;50.058;8.688;2022-12-20T06:13:47;24.70;;;21.98;;
51148;SDS011;37210;50.058;8.688;2022-12-20T06:16:15;25.85;;;21.13;;
51148;SDS011;37210;50.058;8.688;2022-12-20T06:18:45;24.38;;;21.25;;
51148;SDS011;37210;50.058;8.688;2022-12-20T06:21:13;25.85;;;21.95;;
51148;SDS011;37210;50.058;8.688;2022-12-20T06:23:40;24.88;;;21.42;;
51148;SDS011;37210;50.058;8.688;2022-12-20T06:26:12;23.25;;;20.75;;
51148;SDS011;37210;50.058;8.688;2022-12-20T06:28:47;23.67;;;21.02;;
51148;SDS011;37210;50.058;8.688;2022-12-20T06:31:21;26.52;;;21.15;;
51148;SDS011;37210;50.058;8.688;2022-12-20T06:33:51;28.17;;;22.98;;
51148;SDS011;37210;50.058;8.688;2022-12-20T06:36:21;28.77;;;23.17;;
51148;SDS011;37210;50.058;8.688;2022-12-20T06:38:49;26.75;;;22.67;;
51148;SDS011;37210;50.058;8.688;2022-12-20T06:41:18;25.73;;;22.80;;
51148;SDS011;37210;50.058;8.688;2022-12-20T06:43:46;25.75;;;21.30;;
51148;SDS011;37210;50.058;8.688;2022-12-20T06:46:14;25.38;;;21.02;;
51148;SDS011;37210;50.058;8.688;2022-12-20T06:48:43;25.70;;;21.40;;
51148;SDS011;37210;50.058;8.688;2022-12-20T06:51:11;22.70;;;20.08;;
51148;SDS011;37210;50.058;8.688;2022-12-20T06:53:38;24.77;;;20.30;;
51148;SDS011;37210;50.058;8.688;2022-12-20T06:56:06;23.55;;;20.60;;
51148;SDS011;37210;50.058;8.688;2022-12-20T06:58:35;25.00;;;19.75;;
51148;SDS011;37210;50.058;8.688;2022-12-20T07:01:02;24.70;;;20.13;;
51148;SDS011;37210;50.058;8.688;2022-12-20T07:03:30;24.98;;;20.35;;
51148;SDS011;37210;50.058;8.688;2022-12-20T07:05:57;25.05;;;20.65;;
51148;SDS011;37210;50.058;8.688;2022-12-20T07:08:25;24.05;;;21.42;;
51148;SDS011;37210;50.058;8.688;2022-12-20T07:10:52;24.77;;;20.38;;
51148;SDS011;37210;50.058;8.688;2022-12-20T07:13:20;22.40;;;19.80;;
51148;SDS011;37210;50.058;8.688;2022-12-20T07:15:48;23.05;;;20.52;;
51148;SDS011;37210;50.058;8.688;2022-12-20T07:18:23;22.90;;;20.25;;
51148;SDS011;37210;50.058;8.688;2022-12-20T07:20:51;26.23;;;21.08;;
51148;SDS011;37210;50.058;8.688;2022-12-20T07:23:18;24.45;;;21.05;;
51148;SDS011;37210;50.058;8.688;2022-12-20T07:25:51;25.33;;;22.40;;
51148;SDS011;37210;50.058;8.688;2022-12-20T07:28:21;28.60;;;21.88;;
51148;SDS011;37210;50.058;8.688;2022-12-20T07:30:50;25.92;;;21.42;;
51148;SDS011;37210;50.058;8.688;2022-12-20T07:33:18;26.05;;;21.95;;
51148;SDS011;37210;50.058;8.688;2022-12-20T07:35:45;25.17;;;22.48;;
51148;SDS011;37210;50.058;8.688;2022-12-20T07:38:15;27.77;;;23.80;;
51148;SDS011;37210;50.058;8.688;2022-12-20T07:40:43;30.15;;;24.45;;
51148;SDS011;37210;50.058;8.688;2022-12-20T07:43:10;27.52;;;23.85;;
51148;SDS011;37210;50.058;8.688;2022-12-20T07:45:38;26.63;;;23.75;;
51148;SDS011;37210;50.058;8.688;2022-12-20T07:48:07;25.67;;;22.95;;
51148;SDS011;37210;50.058;8.688;2022-12-20T07:50:34;28.75;;;25.05;;
51148;SDS011;37210;50.058;8.688;2022-12-20T07:53:02;26.70;;;23.65;;
51148;SDS011;37210;50.058;8.688;2022-12-20T07:55:33;26.88;;;22.75;;
51148;SDS011;37210;50.058;8.688;2022-12-20T07:58:05;26.80;;;23.13;;
51148;SDS011;37210;50.058;8.688;2022-12-20T08:00:37;27.15;;;22.85;;
51148;SDS011;37210;50.058;8.688;2022-12-20T08:03:06;25.50;;;21.73;;
51148;SDS011;37210;50.058;8.688;2022-12-20T08:05:44;23.98;;;21.50;;
51148;SDS011;37210;50.058;8.688;2022-12-20T08:08:17;24.77;;;22.17;;
51148;SDS011;37210;50.058;8.688;2022-12-20T08:10:47;25.38;;;22.77;;
51148;SDS011;37210;50.058;8.688;2022-12-20T08:13:15;36.42;;;30.35;;
51148;SDS011;37210;50.058;8.688;2022-12-20T08:15:43;81.97;;;59.13;;
51148;SDS011;37210;50.058;8.688;2022-12-20T08:18:12;76.85;;;57.10;;
51148;SDS011;37210;50.058;8.688;2022-12-20T08:20:40;58.47;;;51.50;;
51148;SDS011;37210;50.058;8.688;2022-12-20T08:23:08;30.85;;;27.55;;
51148;SDS011;37210;50.058;8.688;2022-12-20T08:25:37;33.20;;;28.70;;
51148;SDS011;37210;50.058;8.688;2022-12-20T08:28:04;29.20;;;24.30;;
51148;SDS011;37210;50.058;8.688;2022-12-20T08:30:32;29.15;;;23.70;;
51148;SDS011;37210;50.058;8.688;2022-12-20T08:32:59;27.17;;;23.58;;
51148;SDS011;37210;50.058;8.688;2022-12-20T08:35:28;26.55;;;22.02;;
51148;SDS011;37210;50.058;8.688;2022-12-20T08:37:55;26.25;;;21.88;;
51148;SDS011;37210;50.058;8.688;2022-12-20T08:40:23;25.13;;;22.42;;
51148;SDS011;37210;50.058;8.688;2022-12-20T08:42:50;25.70;;;22.20;;
51148;SDS011;37210;50.058;8.688;2022-12-20T08:45:18;28.38;;;21.40;;
51148;SDS011;37210;50.058;8.688;2022-12-20T08:47:45;27.15;;;21.42;;
51148;SDS011;37210;50.058;8.688;2022-12-20T08:50:14;25.65;;;21.52;;
51148;SDS011;37210;50.058;8.688;2022-12-20T08:52:43;23.73;;;20.85;;
51148;SDS011;37210;50.058;8.688;2022-12-20T08:55:11;23.55;;;20.80;;
51148;SDS011;37210;50.058;8.688;2022-12-20T08:57:38;24.50;;;20.35;;
51148;SDS011;37210;50.058;8.688;2022-12-20T09:00:06;23.70;;;20.77;;
51148;SDS011;37210;50.058;8.688;2022-12-20T09:02:35;24.40;;;20.83;;
51148;SDS011;37210;50.058;8.688;2022-12-20T09:05:04;26.25;;;20.75;;
51148;SDS011;37210;50.058;8.688;2022-12-20T09:07:32;22.33;;;18.92;;
51148;SDS011;37210;50.058;8.688;2022-12-20T09:10:01;23.95;;;19.98;;
51148;SDS011;37210;50.058;8.688;2022-12-20T09:12:29;23.38;;;20.63;;
51148;SDS011;37210;50.058;8.688;2022-12-20T09:14:56;21.75;;;19.38;;
51148;SDS011;37210;50.058;8.688;2022-12-20T09:17:24;23.90;;;18.98;;
51148;SDS011;37210;50.058;8.688;2022-12-20T09:19:53;21.30;;;19.00;;
51148;SDS011;37210;50.058;8.688;2022-12-20T09:22:21;25.88;;;19.92;;
51148;SDS011;37210;50.058;8.688;2022-12-20T09:24:48;22.10;;;18.95;;
51148;SDS011;37210;50.058;8.688;2022-12-20T09:27:17;20.88;;;18.20;;
51148;SDS011;37210;50.058;8.688;2022-12-20T09:29:44;22.88;;;18.75;;
51148;SDS011;37210;50.058;8.688;2022-12-20T09:32:12;21.25;;;18.83;;
51148;SDS011;37210;50.058;8.688;2022-12-20T09:34:41;20.33;;;17.88;;
51148;SDS011;37210;50.058;8.688;2022-12-20T09:37:09;24.50;;;18.75;;
51148;SDS011;37210;50.058;8.688;2022-12-20T09:39:36;20.30;;;18.20;;
51148;SDS011;37210;50.058;8.688;2022-12-20T09:42:05;21.08;;;17.98;;
51148;SDS011;37210;50.058;8.688;2022-12-20T09:44:37;21.42;;;18.00;;
51148;SDS011;37210;50.058;8.688;2022-12-20T09:47:09;20.70;;;18.55;;
51148;SDS011;37210;50.058;8.688;2022-12-20T09:49:43;22.58;;;18.95;;
51148;SDS011;37210;50.058;8.688;2022-12-20T09:52:20;25.88;;;20.98;;
51148;SDS011;37210;50.058;8.688;2022-12-20T09:55:06;24.80;;;22.17;;
51148;SDS011;37210;50.058;8.688;2022-12-20T09:57:51;25.10;;;20.85;;
51148;SDS011;37210;50.058;8.688;2022-12-20T10:00:44;24.90;;;22.30;;
51148;SDS011;37210;50.058;8.688;2022-12-20T10:03:16;24.95;;;21.00;;
51148;SDS011;37210;50.058;8.688;2022-12-20T10:05:50;23.55;;;21.13;;
51148;SDS011;37210;50.058;8.688;2022-12-20T10:08:23;24.00;;;21.58;;
51148;SDS011;37210;50.058;8.688;2022-12-20T10:11:09;25.95;;;21.50;;
51148;SDS011;37210;50.058;8.688;2022-12-20T10:14:01;25.45;;;20.95;;
51148;SDS011;37210;50.058;8.688;2022-12-20T10:16:50;22.65;;;20.25;;
51148;SDS011;37210;50.058;8.688;2022-12-20T10:19:28;26.15;;;21.38;;
51148;SDS011;37210;50.058;8.688;2022-12-20T10:22:27;24.98;;;22.27;;
51148;SDS011;37210;50.058;8.688;2022-12-20T10:27:44;20.67;;;18.48;;
51148;SDS011;37210;50.058;8.688;2022-12-20T10:30:16;22.27;;;19.90;;
51148;SDS011;37210;50.058;8.688;2022-12-20T10:32:51;21.98;;;19.70;;
51148;SDS011;37210;50.058;8.688;2022-12-20T10:35:22;20.83;;;18.77;;
51148;SDS011;37210;50.058;8.688;2022-12-20T10:37:55;22.33;;;18.65;;
51148;SDS011;37210;50.058;8.688;2022-12-20T10:40:27;22.00;;;19.65;;
51148;SDS011;37210;50.058;8.688;2022-12-20T10:42:58;21.35;;;19.17;;
51148;SDS011;37210;50.058;8.688;2022-12-20T10:45:31;19.73;;;17.73;;
51148;SDS011;37210;50.058;8.688;2022-12-20T10:48:04;20.60;;;18.33;;
51148;SDS011;37210;50.058;8.688;2022-12-20T10:53:22;21.75;;;19.35;;
51148;SDS011;37210;50.058;8.688;2022-12-20T10:55:52;21.50;;;19.00;;
51148;SDS011;37210;50.058;8.688;2022-12-20T10:58:27;19.92;;;18.05;;
51148;SDS011;37210;50.058;8.688;2022-12-20T11:01:04;20.25;;;18.17;;
51148;SDS011;37210;50.058;8.688;2022-12-20T11:03:51;22.67;;;19.23;;
51148;SDS011;37210;50.058;8.688;2022-12-20T11:06:23;20.10;;;17.95;;
51148;SDS011;37210;50.058;8.688;2022-12-20T11:11:57;19.88;;;17.25;;
51148;SDS011;37210;50.058;8.688;2022-12-20T11:14:31;20.63;;;18.45;;
51148;SDS011;37210;50.058;8.688;2022-12-20T11:17:03;20.73;;;18.38;;
51148;SDS011;37210;50.058;8.688;2022-12-20T11:19:58;21.48;;;18.90;;
51148;SDS011;37210;50.058;8.688;2022-12-20T11:22:48;24.70;;;21.33;;
51148;SDS011;37210;50.058;8.688;2022-12-20T11:25:30;23.30;;;20.42;;
51148;SDS011;37210;50.058;8.688;2022-12-20T11:28:20;23.33;;;19.90;;
51148;SDS011;37210;50.058;8.688;2022-12-20T11:31:13;19.80;;;17.77;;
51148;SDS011;37210;50.058;8.688;2022-12-20T11:36:50;20.75;;;17.73;;
51148;SDS011;37210;50.058;8.688;2022-12-20T11:39:33;21.85;;;19.55;;
51148;SDS011;37210;50.058;8.688;2022-12-20T11:42:12;21.30;;;18.65;;
51148;SDS011;37210;50.058;8.688;2022-12-20T11:44:56;20.88;;;18.02;;
51148;SDS011;37210;50.058;8.688;2022-12-20T11:47:40;20.38;;;18.42;;
51148;SDS011;37210;50.058;8.688;2022-12-20T11:50:28;19.27;;;17.27;;
51148;SDS011;37210;50.058;8.688;2022-12-20T11:53:12;19.60;;;17.60;;
51148;SDS011;37210;50.058;8.688;2022-12-20T11:55:49;17.63;;;15.80;;
51148;SDS011;37210;50.058;8.688;2022-12-20T11:58:22;23.88;;;21.13;;
51148;SDS011;37210;50.058;8.688;2022-12-20T12:00:58;17.85;;;16.15;;
51148;SDS011;37210;50.058;8.688;2022-12-20T12:03:32;19.20;;;17.23;;
51148;SDS011;37210;50.058;8.688;2022-12-20T12:06:03;20.20;;;18.20;;
51148;SDS011;37210;50.058;8.688;2022-12-20T12:08:41;20.83;;;18.70;;
51148;SDS011;37210;50.058;8.688;2022-12-20T12:11:16;20.52;;;18.10;;
51148;SDS011;37210;50.058;8.688;2022-12-20T12:13:48;19.70;;;17.70;;
51148;SDS011;37210;50.058;8.688;2022-12-20T12:16:19;20.60;;;18.50;;
51148;SDS011;37210;50.058;8.688;2022-12-20T12:18:53;20.60;;;17.65;;
51148;SDS011;37210;50.058;8.688;2022-12-20T12:21:22;21.10;;;19.10;;
51148;SDS011;37210;50.058;8.688;2022-12-20T12:23:56;20.55;;;18.70;;
51148;SDS011;37210;50.058;8.688;2022-12-20T12:26:34;19.85;;;17.75;;
51148;SDS011;37210;50.058;8.688;2022-12-20T12:29:05;19.65;;;17.50;;
51148;SDS011;37210;50.058;8.688;2022-12-20T12:31:41;18.33;;;16.45;;
51148;SDS011;37210;50.058;8.688;2022-12-20T12:34:20;19.58;;;17.33;;
51148;SDS011;37210;50.058;8.688;2022-12-20T12:46:13;19.77;;;17.67;;
51148;SDS011;37210;50.058;8.688;2022-12-20T12:48:50;18.67;;;16.77;;
51148;SDS011;37210;50.058;8.688;2022-12-20T12:51:26;18.42;;;16.65;;
51148;SDS011;37210;50.058;8.688;2022-12-20T12:54:02;18.38;;;15.88;;
51148;SDS011;37210;50.058;8.688;2022-12-20T12:56:44;18.60;;;16.15;;
51148;SDS011;37210;50.058;8.688;2022-12-20T12:59:22;19.33;;;16.85;;
51148;SDS011;37210;50.058;8.688;2022-12-20T13:02:32;18.30;;;16.45;;
51148;SDS011;37210;50.058;8.688;2022-12-20T13:05:30;18.27;;;16.40;;
51148;SDS011;37210;50.058;8.688;2022-12-20T13:08:02;19.40;;;17.40;;
51148;SDS011;37210;50.058;8.688;2022-12-20T13:13:27;18.48;;;16.77;;
51148;SDS011;37210;50.058;8.688;2022-12-20T13:16:04;20.27;;;18.08;;
51148;SDS011;37210;50.058;8.688;2022-12-20T13:21:41;20.85;;;18.75;;
51148;SDS011;37210;50.058;8.688;2022-12-20T13:27:23;20.50;;;18.55;;
51148;SDS011;37210;50.058;8.688;2022-12-20T13:39:01;22.75;;;20.35;;
51148;SDS011;37210;50.058;8.688;2022-12-20T13:42:06;19.60;;;17.58;;
51148;SDS011;37210;50.058;8.688;2022-12-20T13:44:48;19.05;;;16.95;;
51148;SDS011;37210;50.058;8.688;2022-12-20T13:47:27;19.23;;;17.15;;
51148;SDS011;37210;50.058;8.688;2022-12-20T13:50:01;18.25;;;16.50;;
51148;SDS011;37210;50.058;8.688;2022-12-20T13:53:03;19.70;;;17.15;;
51148;SDS011;37210;50.058;8.688;2022-12-20T13:55:34;19.20;;;17.30;;
51148;SDS011;37210;50.058;8.688;2022-12-20T13:58:04;24.02;;;21.73;;
51148;SDS011;37210;50.058;8.688;2022-12-20T14:00:38;25.27;;;22.95;;
51148;SDS011;37210;50.058;8.688;2022-12-20T14:03:12;21.75;;;19.58;;
51148;SDS011;37210;50.058;8.688;2022-12-20T14:05:49;26.10;;;23.45;;
51148;SDS011;37210;50.058;8.688;2022-12-20T14:08:24;27.77;;;25.05;;
51148;SDS011;37210;50.058;8.688;2022-12-20T14:11:05;25.95;;;23.67;;
51148;SDS011;37210;50.058;8.688;2022-12-20T14:13:35;25.55;;;23.20;;
51148;SDS011;37210;50.058;8.688;2022-12-20T14:16:06;24.83;;;22.20;;
51148;SDS011;37210;50.058;8.688;2022-12-20T14:18:37;22.35;;;20.10;;
51148;SDS011;37210;50.058;8.688;2022-12-20T14:21:05;24.23;;;21.70;;
51148;SDS011;37210;50.058;8.688;2022-12-20T14:23:37;22.35;;;19.95;;
51148;SDS011;37210;50.058;8.688;2022-12-20T14:26:09;24.58;;;20.58;;
51148;SDS011;37210;50.058;8.688;2022-12-20T14:28:41;24.05;;;20.02;;
51148;SDS011;37210;50.058;8.688;2022-12-20T14:31:21;23.40;;;21.10;;
51148;SDS011;37210;50.058;8.688;2022-12-20T14:34:01;23.05;;;20.67;;
51148;SDS011;37210;50.058;8.688;2022-12-20T14:36:31;23.75;;;21.27;;
51148;SDS011;37210;50.058;8.688;2022-12-20T14:39:09;25.27;;;21.50;;
51148;SDS011;37210;50.058;8.688;2022-12-20T14:41:54;24.27;;;21.10;;
51148;SDS011;37210;50.058;8.688;2022-12-20T14:44:24;22.63;;;20.00;;
51148;SDS011;37210;50.058;8.688;2022-12-20T14:46:53;22.45;;;20.08;;
51148;SDS011;37210;50.058;8.688;2022-12-20T14:49:25;23.08;;;20.63;;
51148;SDS011;37210;50.058;8.688;2022-12-20T14:52:04;21.75;;;19.55;;
51148;SDS011;37210;50.058;8.688;2022-12-20T14:54:41;23.35;;;20.88;;
51148;SDS011;37210;50.058;8.688;2022-12-20T14:57:16;22.83;;;20.63;;
51148;SDS011;37210;50.058;8.688;2022-12-20T14:59:56;24.90;;;20.58;;
51148;SDS011;37210;50.058;8.688;2022-12-20T15:02:35;23.95;;;21.30;;
51148;SDS011;37210;50.058;8.688;2022-12-20T15:05:09;22.35;;;20.10;;
51148;SDS011;37210;50.058;8.688;2022-12-20T15:08:10;21.98;;;19.75;;
51148;SDS011;37210;50.058;8.688;2022-12-20T15:10:40;21.50;;;19.30;;
51148;SDS011;37210;50.058;8.688;2022-12-20T15:13:11;24.52;;;22.15;;
51148;SDS011;37210;50.058;8.688;2022-12-20T15:15:40;20.73;;;18.67;;
51148;SDS011;37210;50.058;8.688;2022-12-20T15:18:11;22.27;;;20.17;;
51148;SDS011;37210;50.058;8.688;2022-12-20T15:20:42;22.40;;;20.00;;
51148;SDS011;37210;50.058;8.688;2022-12-20T15:23:14;24.40;;;21.92;;
51148;SDS011;37210;50.058;8.688;2022-12-20T15:25:43;21.35;;;19.35;;
51148;SDS011;37210;50.058;8.688;2022-12-20T15:28:12;20.55;;;18.52;;
51148;SDS011;37210;50.058;8.688;2022-12-20T15:30:42;20.92;;;16.98;;
51148;SDS011;37210;50.058;8.688;2022-12-20T15:33:13;21.02;;;18.83;;
51148;SDS011;37210;50.058;8.688;2022-12-20T15:35:46;19.73;;;17.80;;
51148;SDS011;37210;50.058;8.688;2022-12-20T15:38:14;21.13;;;18.73;;
51148;SDS011;37210;50.058;8.688;2022-12-20T15:40:45;19.67;;;17.73;;
51148;SDS011;37210;50.058;8.688;2022-12-20T15:43:16;21.00;;;18.58;;